createdAt,value
2023-03-20T00:02:12.292Z,7.13
2023-03-20T00:04:40.918Z,5.93
2023-03-20T00:07:12.486Z,5.30
2023-03-20T00:09:40.717Z,5.00
2023-03-20T00:12:11.512Z,4.63
2023-03-20T00:14:41.655Z,4.60
2023-03-20T00:17:12.282Z,4.70
2023-03-20T00:19:40.476Z,5.17
2023-03-20T00:22:10.180Z,7.73
2023-03-20T00:24:38.408Z,6.33
2023-03-20T00:27:06.990Z,5.73
2023-03-20T00:29:35.373Z,5.90
2023-03-20T00:32:04.973Z,6.07
2023-03-20T00:34:33.134Z,4.73
2023-03-20T00:37:01.393Z,7.37
2023-03-20T00:39:31.659Z,4.60
2023-03-20T00:42:03.824Z,4.93
2023-03-20T00:44:36.888Z,4.97
2023-03-20T00:47:13.458Z,4.97
2023-03-20T00:49:41.883Z,6.20
2023-03-20T00:52:12.646Z,4.50
2023-03-20T00:54:40.887Z,5.90
2023-03-20T00:57:13.910Z,4.70
2023-03-20T00:59:49.408Z,4.30
2023-03-20T01:02:19.168Z,4.53
2023-03-20T01:04:48.757Z,5.20
2023-03-20T01:07:18.542Z,4.87
2023-03-20T01:09:47.215Z,4.30
2023-03-20T01:12:17.550Z,4.37
2023-03-20T01:14:47.554Z,5.00
2023-03-20T01:17:20.251Z,4.70
2023-03-20T01:19:49.409Z,5.30
2023-03-20T01:22:18.004Z,4.47
2023-03-20T01:24:47.358Z,4.60
2023-03-20T01:27:18.794Z,4.80
2023-03-20T01:29:47.702Z,4.60
2023-03-20T01:32:19.580Z,4.30
2023-03-20T01:34:51.451Z,4.80
2023-03-20T01:37:25.995Z,5.63
2023-03-20T01:39:55.093Z,5.63
2023-03-20T01:42:23.420Z,5.87
2023-03-20T01:44:51.895Z,5.77
2023-03-20T01:47:23.828Z,6.27
2023-03-20T01:50:23.328Z,5.13
2023-03-20T01:53:09.604Z,5.10
2023-03-20T01:55:44.502Z,4.83
2023-03-20T01:58:18.524Z,5.07
2023-03-20T02:00:49.106Z,4.70
2023-03-20T02:03:21.419Z,5.00
2023-03-20T02:06:10.349Z,4.83
2023-03-20T02:09:05.733Z,4.77
2023-03-20T02:11:41.304Z,4.87
2023-03-20T02:14:10.642Z,4.50
2023-03-20T02:16:49.139Z,4.90
2023-03-20T02:19:29.177Z,4.90
2023-03-20T02:22:26.436Z,5.27
2023-03-20T02:25:25.893Z,4.97
2023-03-20T02:28:35.021Z,4.87
2023-03-20T02:31:39.215Z,5.60
2023-03-20T02:34:41.149Z,5.10
2023-03-20T02:37:46.937Z,5.47
2023-03-20T02:40:25.250Z,5.57
2023-03-20T02:43:01.831Z,5.73
2023-03-20T02:45:35.917Z,5.93
2023-03-20T02:48:21.989Z,6.83
2023-03-20T02:50:57.641Z,7.10
2023-03-20T02:53:37.348Z,6.47
2023-03-20T02:56:14.454Z,6.67
2023-03-20T02:58:50.675Z,6.40
2023-03-20T03:01:23.695Z,6.93
2023-03-20T03:03:57.596Z,5.90
2023-03-20T03:06:30.112Z,6.33
2023-03-20T03:09:03.866Z,6.37
2023-03-20T03:11:35.425Z,6.00
2023-03-20T03:14:05.321Z,6.17
2023-03-20T03:16:37.076Z,7.27
2023-03-20T03:19:10.501Z,7.77
2023-03-20T03:21:41.618Z,6.63
2023-03-20T03:24:39.254Z,6.67
2023-03-20T03:27:17.514Z,6.93
2023-03-20T03:29:51.170Z,6.67
2023-03-20T03:32:31.152Z,6.87
2023-03-20T03:35:00.753Z,7.10
2023-03-20T03:37:41.312Z,6.40
2023-03-20T03:40:20.982Z,7.37
2023-03-20T03:42:57.078Z,8.30
2023-03-20T03:45:35.185Z,7.60
2023-03-20T03:48:08.615Z,7.70
2023-03-20T03:50:41.641Z,7.67
2023-03-20T03:53:13.239Z,7.00
2023-03-20T03:55:47.971Z,6.90
2023-03-20T03:58:20.786Z,6.97
2023-03-20T04:00:52.062Z,8.10
2023-03-20T04:03:24.342Z,7.00
2023-03-20T04:05:54.487Z,7.23
2023-03-20T04:08:22.710Z,6.90
2023-03-20T04:10:52.460Z,6.57
2023-03-20T04:13:20.745Z,7.00
2023-03-20T04:15:49.181Z,5.90
2023-03-20T04:18:19.466Z,6.47
2023-03-20T04:20:49.704Z,6.43
2023-03-20T04:23:18.343Z,7.13
2023-03-20T04:25:47.060Z,6.50
2023-03-20T04:28:17.544Z,6.53
2023-03-20T04:31:06.822Z,6.87
2023-03-20T04:33:55.588Z,6.60
2023-03-20T04:36:46.165Z,7.20
2023-03-20T04:39:16.487Z,7.13
2023-03-20T04:41:44.824Z,9.23
2023-03-20T04:44:14.809Z,7.67
2023-03-20T04:46:46.097Z,7.00
2023-03-20T04:49:18.540Z,7.30
2023-03-20T04:51:46.949Z,8.00
2023-03-20T04:54:17.386Z,8.20
2023-03-20T04:56:45.697Z,7.90
2023-03-20T04:59:19.619Z,8.13
2023-03-20T05:01:47.958Z,8.13
2023-03-20T05:04:16.837Z,7.73
2023-03-20T05:06:48.416Z,7.00
2023-03-20T05:09:18.054Z,7.10
2023-03-20T05:11:46.965Z,7.53
2023-03-20T05:14:39.534Z,6.70
2023-03-20T05:17:41.074Z,7.23
2023-03-20T05:20:27.945Z,7.20
2023-03-20T05:23:20.540Z,7.63
2023-03-20T05:26:11.817Z,7.60
2023-03-20T05:29:02.973Z,7.10
2023-03-20T05:32:08.134Z,8.10
2023-03-20T05:34:41.979Z,6.70
2023-03-20T05:37:19.868Z,7.00
2023-03-20T05:40:05.647Z,7.03
2023-03-20T05:43:06.204Z,7.53
2023-03-20T05:45:57.745Z,8.13
2023-03-20T05:49:02.907Z,8.03
2023-03-20T05:52:03.703Z,8.57
2023-03-20T05:54:40.394Z,8.20
2023-03-20T05:57:44.082Z,8.33
2023-03-20T06:00:41.700Z,9.20
2023-03-20T06:03:39.104Z,9.50
2023-03-20T06:06:15.546Z,8.80
2023-03-20T06:08:47.712Z,9.50
2023-03-20T06:11:16.109Z,9.80
2023-03-20T06:13:44.822Z,9.70
2023-03-20T06:16:13.572Z,9.57
2023-03-20T06:18:41.967Z,8.87
2023-03-20T06:21:12.955Z,9.47
2023-03-20T06:23:43.098Z,8.50
2023-03-20T06:26:12.000Z,8.23
2023-03-20T06:29:09.208Z,7.83
2023-03-20T06:31:38.169Z,8.20
2023-03-20T06:34:08.583Z,8.23
2023-03-20T06:36:45.145Z,8.00
2023-03-20T06:39:20.886Z,8.40
2023-03-20T06:41:49.485Z,8.33
2023-03-20T06:44:17.998Z,8.13
2023-03-20T06:47:04.586Z,8.40
2023-03-20T06:49:33.284Z,7.80
2023-03-20T06:52:01.598Z,7.13
2023-03-20T06:54:31.294Z,8.90
2023-03-20T06:56:59.693Z,7.60
2023-03-20T06:59:28.158Z,8.03
2023-03-20T07:01:58.902Z,6.90
2023-03-20T07:04:29.832Z,7.63
2023-03-20T07:07:02.104Z,7.20
2023-03-20T07:09:33.130Z,7.20
2023-03-20T07:12:01.385Z,7.57
2023-03-20T07:14:32.529Z,8.20
2023-03-20T07:17:07.593Z,7.53
2023-03-20T07:19:38.147Z,7.50
2023-03-20T07:22:09.564Z,7.63
2023-03-20T07:24:44.312Z,6.90
2023-03-20T07:27:14.268Z,6.60
2023-03-20T07:29:43.221Z,7.10
2023-03-20T07:32:15.386Z,7.13
2023-03-20T07:34:50.497Z,6.90
2023-03-20T07:37:21.207Z,7.07
2023-03-20T07:40:02.679Z,6.90
2023-03-20T07:42:35.489Z,8.37
2023-03-20T07:45:16.789Z,6.83
2023-03-20T07:47:48.248Z,8.03
2023-03-20T07:50:17.185Z,8.37
2023-03-20T07:52:47.946Z,7.60
2023-03-20T07:55:18.677Z,8.77
2023-03-20T07:57:49.226Z,7.97
2023-03-20T08:00:18.818Z,7.53
2023-03-20T08:02:47.210Z,7.70
2023-03-20T08:05:15.609Z,7.07
2023-03-20T08:07:45.997Z,7.40
2023-03-20T08:10:14.466Z,6.77
2023-03-20T08:12:45.227Z,7.77
2023-03-20T08:15:13.684Z,9.67
2023-03-20T08:17:43.963Z,6.93
2023-03-20T08:20:13.278Z,8.00
2023-03-20T08:22:42.738Z,6.87
2023-03-20T08:25:12.290Z,6.77
2023-03-20T08:27:40.609Z,6.87
2023-03-20T08:30:14.012Z,7.10
2023-03-20T08:32:42.893Z,8.40
2023-03-20T08:35:29.642Z,7.43
2023-03-20T08:37:58.310Z,7.80
2023-03-20T08:40:26.529Z,7.07
2023-03-20T08:42:55.032Z,6.87
2023-03-20T08:45:26.226Z,6.80
2023-03-20T08:47:55.023Z,6.80
2023-03-20T08:50:23.994Z,8.90
2023-03-20T08:52:52.424Z,7.67
2023-03-20T08:55:20.926Z,22.70
2023-03-20T08:57:49.192Z,19.53
2023-03-20T09:00:20.361Z,7.97
2023-03-20T09:02:50.909Z,7.90
2023-03-20T09:05:19.357Z,8.97
2023-03-20T09:07:47.642Z,6.97
2023-03-20T09:10:17.514Z,7.83
2023-03-20T09:12:45.742Z,7.20
2023-03-20T09:15:14.376Z,7.63
2023-03-20T09:17:42.703Z,6.47
2023-03-20T09:20:13.097Z,5.60
2023-03-20T09:22:43.791Z,6.30
2023-03-20T09:25:12.509Z,5.77
2023-03-20T09:27:41.179Z,6.27
2023-03-20T09:30:11.907Z,5.40
2023-03-20T09:32:40.281Z,6.40
2023-03-20T09:35:08.875Z,6.30
2023-03-20T09:37:38.492Z,7.10
2023-03-20T09:40:08.679Z,6.47
2023-03-20T09:42:46.585Z,6.20
2023-03-20T09:45:21.312Z,5.03
2023-03-20T09:47:58.257Z,5.40
2023-03-20T09:50:32.754Z,4.93
2023-03-20T09:53:07.383Z,4.43
2023-03-20T09:55:38.325Z,4.60
2023-03-20T09:58:14.171Z,5.10
2023-03-20T10:00:46.145Z,4.70
2023-03-20T10:03:20.960Z,5.00
2023-03-20T10:05:55.625Z,4.80
2023-03-20T10:08:28.513Z,4.80
2023-03-20T10:11:05.628Z,4.63
2023-03-20T10:14:03.527Z,5.27
2023-03-20T10:16:43.058Z,4.63
2023-03-20T10:19:21.279Z,4.80
2023-03-20T10:21:54.204Z,5.23
2023-03-20T10:24:29.969Z,4.60
2023-03-20T10:27:03.809Z,4.50
2023-03-20T10:29:40.174Z,4.72
2023-03-20T10:32:14.600Z,4.47
2023-03-20T10:34:54.544Z,4.47
2023-03-20T10:37:36.369Z,4.55
2023-03-20T10:40:24.917Z,4.30
2023-03-20T10:42:56.368Z,5.50
2023-03-20T10:45:33.879Z,4.88
2023-03-20T10:48:06.598Z,4.10
2023-03-20T10:50:40.001Z,4.82
2023-03-20T10:53:09.924Z,4.43
2023-03-20T10:55:43.853Z,4.22
2023-03-20T10:58:17.928Z,4.55
2023-03-20T11:00:47.022Z,4.67
2023-03-20T11:03:23.343Z,4.23
2023-03-20T11:06:08.824Z,3.80
2023-03-20T11:08:41.187Z,4.03
2023-03-20T11:11:11.752Z,4.27
2023-03-20T11:13:42.680Z,4.27
2023-03-20T11:16:17.958Z,4.10
2023-03-20T11:18:46.904Z,3.67
2023-03-20T11:21:23.744Z,6.13
2023-03-20T11:23:53.080Z,3.60
2023-03-20T11:26:36.911Z,3.33
2023-03-20T11:29:08.034Z,3.63
2023-03-20T11:31:38.207Z,3.90
2023-03-20T11:34:20.720Z,5.07
2023-03-20T11:37:09.407Z,4.00
2023-03-20T11:39:40.129Z,4.37
2023-03-20T11:42:25.028Z,4.95
2023-03-20T11:45:01.452Z,3.58
2023-03-20T11:47:34.632Z,4.38
2023-03-20T11:50:05.685Z,4.13
2023-03-20T11:52:36.469Z,6.13
2023-03-20T11:55:25.202Z,4.85
2023-03-20T11:57:58.033Z,4.50
2023-03-20T12:00:30.062Z,4.50
2023-03-20T12:02:58.294Z,4.90
2023-03-20T12:05:33.538Z,4.90
2023-03-20T12:08:06.384Z,5.07
2023-03-20T12:10:39.648Z,4.13
2023-03-20T12:13:15.924Z,3.72
2023-03-20T12:15:47.678Z,3.80
2023-03-20T12:18:32.107Z,3.63
2023-03-20T12:21:08.517Z,3.50
2023-03-20T12:23:40.800Z,3.38
2023-03-20T12:26:13.943Z,4.70
2023-03-20T12:28:51.463Z,3.40
2023-03-20T12:31:27.066Z,3.13
2023-03-20T12:34:01.534Z,3.20
2023-03-20T12:36:34.027Z,3.30
2023-03-20T12:39:04.680Z,5.15
2023-03-20T12:41:42.312Z,5.78
2023-03-20T12:44:35.131Z,9.32
2023-03-20T12:47:33.015Z,21.38
2023-03-20T12:50:11.587Z,18.80
2023-03-20T12:52:48.603Z,22.83
2023-03-20T12:55:36.890Z,13.87
2023-03-20T12:58:17.427Z,7.77
2023-03-20T13:00:55.365Z,20.00
2023-03-20T13:03:47.494Z,2.80
2023-03-20T13:06:21.029Z,2.97
2023-03-20T13:09:18.998Z,2.43
2023-03-20T13:11:54.822Z,3.23
2023-03-20T13:14:33.210Z,2.77
2023-03-20T13:17:12.848Z,3.13
2023-03-20T13:19:47.503Z,2.60
2023-03-20T13:22:24.208Z,2.80
2023-03-20T13:24:56.283Z,3.17
2023-03-20T13:27:33.775Z,4.40
2023-03-20T13:30:08.834Z,2.70
2023-03-20T13:32:49.949Z,2.85
2023-03-20T13:35:40.897Z,4.00
2023-03-20T13:38:16.318Z,4.30
2023-03-20T13:40:46.856Z,2.87
2023-03-20T13:43:25.513Z,2.87
2023-03-20T13:46:00.138Z,3.00
2023-03-20T13:48:35.053Z,2.90
2023-03-20T13:51:15.024Z,2.87
2023-03-20T13:54:02.714Z,2.77
2023-03-20T13:56:42.012Z,3.30
2023-03-20T13:59:36.945Z,2.72
2023-03-20T14:02:23.105Z,3.50
2023-03-20T14:05:05.875Z,3.13
2023-03-20T14:07:36.173Z,3.53
2023-03-20T14:10:37.075Z,2.63
2023-03-20T14:13:15.952Z,3.78
2023-03-20T14:15:50.293Z,3.25
2023-03-20T14:18:20.208Z,3.28
2023-03-20T14:20:56.917Z,3.67
2023-03-20T14:23:35.728Z,2.88
2023-03-20T14:26:09.221Z,2.00
2023-03-20T14:28:55.177Z,2.25
2023-03-20T14:31:34.462Z,3.25
2023-03-20T14:34:16.657Z,3.00
2023-03-20T14:36:58.795Z,3.35
2023-03-20T14:39:54.077Z,7.70
2023-03-20T14:42:34.190Z,7.00
2023-03-20T14:45:23.325Z,5.10
2023-03-20T14:47:58.777Z,5.77
2023-03-20T14:50:31.278Z,3.87
2023-03-20T14:53:14.796Z,4.15
2023-03-20T14:55:53.052Z,3.70
2023-03-20T14:58:58.587Z,3.70
2023-03-20T15:01:35.903Z,5.67
2023-03-20T15:04:08.801Z,7.57
2023-03-20T15:06:46.413Z,8.10
2023-03-20T15:09:17.226Z,3.57
2023-03-20T15:11:45.911Z,3.27
2023-03-20T15:14:22.439Z,2.37
2023-03-20T15:16:58.994Z,3.67
2023-03-20T15:19:27.708Z,2.10
2023-03-20T15:21:56.596Z,5.77
2023-03-20T15:24:28.862Z,4.77
2023-03-20T15:26:59.898Z,3.10
2023-03-20T15:29:29.500Z,5.00
2023-03-20T15:32:13.313Z,2.80
2023-03-20T15:34:44.094Z,3.97
2023-03-20T15:37:16.596Z,2.30
2023-03-20T15:39:49.024Z,4.80
2023-03-20T15:42:20.322Z,4.53
2023-03-20T15:44:50.437Z,3.03
2023-03-20T15:47:22.356Z,2.77
2023-03-20T15:49:53.967Z,2.33
2023-03-20T15:52:28.392Z,5.03
2023-03-20T15:54:59.997Z,3.87
2023-03-20T15:57:35.466Z,5.00
2023-03-20T16:00:07.094Z,7.73
2023-03-20T16:02:38.685Z,4.60
2023-03-20T16:05:12.922Z,2.50
2023-03-20T16:07:42.173Z,4.20
2023-03-20T16:10:31.334Z,4.83
2023-03-20T16:13:00.156Z,3.73
2023-03-20T16:15:31.770Z,3.20
2023-03-20T16:18:02.767Z,3.83
2023-03-20T16:20:36.229Z,3.13
2023-03-20T16:23:08.406Z,2.77
2023-03-20T16:25:39.200Z,2.80
2023-03-20T16:28:08.153Z,3.73
2023-03-20T16:30:37.310Z,11.60
2023-03-20T16:33:11.090Z,18.97
2023-03-20T16:35:41.573Z,8.70
2023-03-20T16:38:23.983Z,7.33
2023-03-20T16:40:58.481Z,9.43
2023-03-20T16:43:32.318Z,5.77
2023-03-20T16:46:07.143Z,3.10
2023-03-20T16:48:38.032Z,4.13
2023-03-20T16:51:17.767Z,2.87
2023-03-20T16:53:48.761Z,3.23
2023-03-20T16:56:26.262Z,3.93
2023-03-20T16:58:56.744Z,3.27
2023-03-20T17:01:29.156Z,4.17
2023-03-20T17:04:00.515Z,8.83
2023-03-20T17:06:38.472Z,8.03
2023-03-20T17:09:26.749Z,3.33
2023-03-20T17:12:03.981Z,4.00
2023-03-20T17:14:32.646Z,20.00
2023-03-20T17:17:01.300Z,17.03
2023-03-20T17:19:32.935Z,10.73
2023-03-20T17:22:03.665Z,12.97
2023-03-20T17:24:32.256Z,17.23
2023-03-20T17:27:02.121Z,7.73
2023-03-20T17:29:30.678Z,3.43
2023-03-20T17:31:59.497Z,5.50
2023-03-20T17:34:28.090Z,4.13
2023-03-20T17:36:57.554Z,4.70
2023-03-20T17:39:25.891Z,3.57
2023-03-20T17:41:54.123Z,3.13
2023-03-20T17:44:24.895Z,4.17
2023-03-20T17:46:58.657Z,3.13
2023-03-20T17:49:28.332Z,2.80
2023-03-20T17:51:58.114Z,3.00
2023-03-20T17:54:26.850Z,2.53
2023-03-20T17:56:55.627Z,3.50
2023-03-20T17:59:28.718Z,3.33
2023-03-20T18:01:57.177Z,5.23
2023-03-20T18:04:26.047Z,3.63
2023-03-20T18:06:54.792Z,6.10
2023-03-20T18:09:24.077Z,3.80
2023-03-20T18:11:53.363Z,4.80
2023-03-20T18:14:21.852Z,4.10
2023-03-20T18:16:52.158Z,4.30
2023-03-20T18:19:25.668Z,6.70
2023-03-20T18:21:54.657Z,9.97
2023-03-20T18:24:23.960Z,17.70
2023-03-20T18:26:54.062Z,12.37
2023-03-20T18:29:24.056Z,7.57
2023-03-20T18:31:53.853Z,6.90
2023-03-20T18:34:22.739Z,6.10
2023-03-20T18:36:51.169Z,5.20
2023-03-20T18:39:20.505Z,4.93
2023-03-20T18:41:49.011Z,3.87
2023-03-20T18:44:17.391Z,3.60
2023-03-20T18:46:46.119Z,4.03
2023-03-20T18:49:18.708Z,3.50
2023-03-20T18:51:47.364Z,3.30
2023-03-20T18:54:15.931Z,4.63
2023-03-20T18:56:44.601Z,5.37
2023-03-20T18:59:14.327Z,5.50
2023-03-20T19:01:43.360Z,5.57
2023-03-20T19:04:11.955Z,6.03
2023-03-20T19:06:42.178Z,5.10
2023-03-20T19:09:13.233Z,5.80
2023-03-20T19:11:41.463Z,6.60
2023-03-20T19:14:09.822Z,6.60
2023-03-20T19:16:38.840Z,6.77
2023-03-20T19:19:08.917Z,5.90
2023-03-20T19:21:37.588Z,6.00
2023-03-20T19:24:09.843Z,6.30
2023-03-20T19:26:39.073Z,6.30
2023-03-20T19:29:09.053Z,6.20
2023-03-20T19:31:37.634Z,5.90
2023-03-20T19:34:06.801Z,6.33
2023-03-20T19:36:38.082Z,7.70
2023-03-20T19:39:11.775Z,5.43
2023-03-20T19:41:40.000Z,4.90
2023-03-20T19:44:08.261Z,4.70
2023-03-20T19:46:40.253Z,4.67
2023-03-20T19:49:19.654Z,4.80
2023-03-20T19:51:49.022Z,4.97
2023-03-20T19:54:18.814Z,5.40
2023-03-20T19:56:47.112Z,5.70
2023-03-20T19:59:16.857Z,5.67
2023-03-20T20:01:46.770Z,5.80
2023-03-20T20:04:17.550Z,9.60
2023-03-20T20:06:47.432Z,8.37
2023-03-20T20:09:18.196Z,8.33
2023-03-20T20:11:46.652Z,9.03
2023-03-20T20:14:15.486Z,6.97
2023-03-20T20:16:45.600Z,6.07
2023-03-20T20:19:14.702Z,6.17
2023-03-20T20:24:32.936Z,9.43
2023-03-20T20:27:16.268Z,16.17
2023-03-20T20:29:49.182Z,23.67
2023-03-20T20:32:20.908Z,23.13
2023-03-20T20:38:27.021Z,21.33
2023-03-20T20:40:32.417Z,22.17
2023-03-20T20:43:02.455Z,19.30
2023-03-20T20:45:32.258Z,14.73
2023-03-20T20:48:01.255Z,10.43
2023-03-20T20:50:32.130Z,10.03
2023-03-20T20:53:00.968Z,11.13
2023-03-20T20:55:31.681Z,10.13
2023-03-20T20:58:01.305Z,8.10
2023-03-20T21:00:47.318Z,7.10
2023-03-20T21:03:18.527Z,5.23
2023-03-20T21:05:47.635Z,4.87
2023-03-20T21:08:18.452Z,5.27
2023-03-20T21:10:49.392Z,4.20
2023-03-20T21:13:17.739Z,5.17
2023-03-20T21:15:47.752Z,4.50
2023-03-20T21:18:16.145Z,5.90
2023-03-20T21:20:44.424Z,7.63
2023-03-20T21:23:12.800Z,7.40
2023-03-20T21:25:44.636Z,7.00
2023-03-20T21:28:16.568Z,6.83
2023-03-20T21:31:12.426Z,8.50
2023-03-20T21:33:36.928Z,7.30
2023-03-20T21:36:07.373Z,9.27
2023-03-20T21:41:24.801Z,7.30
2023-03-20T21:43:54.420Z,7.23
2023-03-20T21:46:58.712Z,7.00
2023-03-20T22:03:37.029Z,22.07
2023-03-20T22:06:56.289Z,17.20
2023-03-20T22:09:52.294Z,14.47
2023-03-20T22:12:30.410Z,16.77
2023-03-20T22:21:06.189Z,14.60
2023-03-20T22:35:15.773Z,8.90
2023-03-20T22:40:48.798Z,7.93
2023-03-20T22:43:26.459Z,8.13
2023-03-20T22:45:52.615Z,7.83
2023-03-20T22:48:28.078Z,7.97
2023-03-20T22:50:57.693Z,9.10
2023-03-20T22:53:26.038Z,10.30
2023-03-20T22:55:55.364Z,10.47
2023-03-20T22:58:23.642Z,9.77
2023-03-20T23:00:52.052Z,9.23
2023-03-20T23:03:33.718Z,11.33
2023-03-20T23:06:11.252Z,12.03
2023-03-20T23:08:48.945Z,9.43
2023-03-20T23:11:21.072Z,10.33
2023-03-20T23:13:49.354Z,10.40
2023-03-20T23:16:17.706Z,9.63
2023-03-20T23:18:46.149Z,9.07
2023-03-20T23:21:15.951Z,11.83
2023-03-20T23:23:44.406Z,12.37
2023-03-20T23:26:14.745Z,13.90
2023-03-20T23:28:45.106Z,11.27
2023-03-20T23:31:16.568Z,12.10
2023-03-20T23:33:48.285Z,14.97
2023-03-20T23:36:34.617Z,16.20
2023-03-20T23:39:04.417Z,14.80
2023-03-20T23:41:57.989Z,13.97
2023-03-20T23:44:20.966Z,17.87
2023-03-20T23:46:49.364Z,15.83
2023-03-20T23:49:17.866Z,13.90
2023-03-20T23:51:47.517Z,16.57
2023-03-20T23:54:15.994Z,15.53
2023-03-20T23:56:44.321Z,14.83
2023-03-20T23:59:21.167Z,14.83
